Time;durP1;ratioP1;P1;durP2;ratioP2;P2;SDS_P1;SDS_P2;PMS_P1;PMS_P2;Temp;Humidity;BMP_temperature;BMP_pressure;BME280_temperature;BME280_humidity;BME280_pressure;Samples;Min_cycle;Max_cycle;Signal;HPM_P1;HPM_P2
2023/10/10 00:00:57;;;;;;;24.23;16.80;;;8.70;99.90;;;;;;8286285;28;20677;-69
2023/10/10 00:05:03;;;;;;;23.93;17.37;;;8.70;99.90;;;;;;8265129;28;20400;-68
2023/10/10 00:09:06;;;;;;;24.07;17.33;;;8.70;99.90;;;;;;8261880;28;20239;-68
2023/10/10 00:13:07;;;;;;;29.63;19.73;;;8.70;99.90;;;;;;8281627;28;20180;-68
2023/10/10 00:17:09;;;;;;;28.93;20.23;;;8.70;99.90;;;;;;8260500;28;20215;-71
2023/10/10 00:21:22;;;;;;;22.10;17.07;;;8.70;99.90;;;;;;8264700;28;20290;-70
2023/10/10 00:25:24;;;;;;;26.13;17.53;;;8.70;99.90;;;;;;8285526;28;20210;-67
2023/10/10 00:29:26;;;;;;;27.63;19.00;;;8.70;99.90;;;;;;8266612;28;20432;-70
2023/10/10 00:33:27;;;;;;;28.37;19.30;;;8.70;99.90;;;;;;8262810;28;20200;-72
2023/10/10 00:37:34;;;;;;;30.33;21.43;;;8.80;99.90;;;;;;8259409;28;20207;-68
2023/10/10 00:46:14;;;;;;;30.73;21.73;;;8.80;99.90;;;;;;8271989;28;20230;-70
2023/10/10 00:50:23;;;;;;;24.57;18.17;;;8.80;99.90;;;;;;8281772;28;20239;-69
2023/10/10 00:54:30;;;;;;;25.73;18.37;;;8.80;99.90;;;;;;8281732;28;20188;-71
2023/10/10 00:58:36;;;;;;;29.60;20.10;;;8.80;99.90;;;;;;8282900;28;20546;-70
2023/10/10 01:02:38;;;;;;;24.30;18.57;;;8.80;99.90;;;;;;8283050;28;20192;-70
2023/10/10 01:06:41;;;;;;;29.33;20.30;;;8.80;99.90;;;;;;8264730;28;20191;-70
2023/10/10 01:10:43;;;;;;;30.77;21.70;;;8.80;99.90;;;;;;8279359;28;20228;-71
2023/10/10 01:14:54;;;;;;;34.97;23.03;;;8.80;99.90;;;;;;8262231;28;20219;-71
2023/10/10 01:18:58;;;;;;;32.70;22.47;;;8.80;99.90;;;;;;8258947;28;20298;-68
2023/10/10 01:22:59;;;;;;;34.23;22.47;;;8.80;99.90;;;;;;8260977;28;20193;-68
2023/10/10 01:27:04;;;;;;;40.03;25.23;;;8.80;99.90;;;;;;8258352;28;20382;-70
2023/10/10 01:31:05;;;;;;;39.13;25.63;;;8.90;99.90;;;;;;8249369;28;20455;-71
2023/10/10 01:35:16;;;;;;;32.77;21.07;;;8.90;99.90;;;;;;8278684;28;20243;-71
2023/10/10 01:39:56;;;;;;;41.33;25.20;;;8.90;99.90;;;;;;8274448;28;20187;-71
2023/10/10 01:44:13;;;;;;;32.33;22.23;;;8.90;99.90;;;;;;8274796;28;20189;-69
2023/10/10 01:48:15;;;;;;;36.40;24.10;;;8.90;99.90;;;;;;8257014;28;20197;-71
2023/10/10 01:52:17;;;;;;;42.30;26.90;;;8.90;99.90;;;;;;8259505;28;20199;-70
2023/10/10 01:56:19;;;;;;;44.20;26.23;;;8.90;99.90;;;;;;8272392;28;20236;-69
2023/10/10 02:00:34;;;;;;;42.73;25.83;;;9.00;99.90;;;;;;8259498;28;20290;-70
2023/10/10 02:04:35;;;;;;;39.00;25.03;;;9.00;99.90;;;;;;8254070;28;20192;-69
2023/10/10 02:08:38;;;;;;;40.47;25.93;;;9.00;99.90;;;;;;8270890;28;20218;-69
2023/10/10 02:12:44;;;;;;;45.23;28.30;;;9.00;99.90;;;;;;8272484;28;20196;-64
2023/10/10 02:16:49;;;;;;;42.80;27.27;;;9.00;99.90;;;;;;8270430;28;20215;-63
2023/10/10 02:20:51;;;;;;;40.30;24.60;;;9.00;99.90;;;;;;8270955;28;20211;-64
2023/10/10 02:25:37;;;;;;;35.10;22.87;;;9.00;99.90;;;;;;8257474;28;20204;-64
2023/10/10 02:29:33;;;;;;;37.23;24.03;;;8.90;99.90;;;;;;8269147;28;20196;-66
2023/10/10 02:33:37;;;;;;;40.93;24.87;;;8.90;99.90;;;;;;8269552;28;20203;-64
2023/10/10 02:41:52;;;;;;;38.00;23.00;;;8.90;99.90;;;;;;8270526;28;20247;-65
2023/10/10 02:45:53;;;;;;;38.43;21.37;;;8.90;99.90;;;;;;8260438;28;20283;-65
2023/10/10 02:49:55;;;;;;;37.77;21.07;;;8.90;99.90;;;;;;8259080;28;20191;-63
2023/10/10 02:53:57;;;;;;;34.33;20.03;;;8.90;99.90;;;;;;8244312;28;21337;-63
2023/10/10 02:57:59;;;;;;;37.57;22.60;;;8.90;99.90;;;;;;8267785;28;20206;-65
2023/10/10 03:02:08;;;;;;;35.00;21.20;;;8.90;99.90;;;;;;8270503;28;20201;-62
2023/10/10 03:06:10;;;;;;;34.57;20.47;;;8.90;99.90;;;;;;8252476;28;20188;-64
2023/10/10 03:14:25;;;;;;;33.10;19.10;;;9.00;99.90;;;;;;8265654;28;20190;-64
2023/10/10 03:18:29;;;;;;;36.17;21.50;;;9.00;99.90;;;;;;8249192;28;20355;-64
2023/10/10 03:22:52;;;;;;;33.70;19.37;;;9.00;99.90;;;;;;8254916;28;20207;-71
2023/10/10 03:27:00;;;;;;;42.67;22.83;;;9.00;99.90;;;;;;8271699;28;20196;-70
2023/10/10 03:35:20;;;;;;;32.73;19.47;;;9.00;99.90;;;;;;8273525;28;20184;-71
2023/10/10 03:39:41;;;;;;;30.17;18.60;;;9.00;99.90;;;;;;8256020;28;20238;-70
2023/10/10 05:23:47;;;;;;;20.57;13.63;;;9.30;99.90;;;;;;8280961;28;20379;-69
2023/10/10 05:27:51;;;;;;;19.43;12.63;;;9.30;99.90;;;;;;8279882;28;20283;-68
2023/10/10 05:31:59;;;;;;;21.80;14.67;;;9.40;99.90;;;;;;8255435;28;20242;-70
2023/10/10 05:36:06;;;;;;;21.87;14.67;;;9.40;99.90;;;;;;8269520;28;20299;-70
2023/10/10 05:40:07;;;;;;;21.63;14.77;;;9.40;99.90;;;;;;8267302;28;20260;-68
2023/10/10 05:44:08;;;;;;;21.63;13.97;;;9.50;99.90;;;;;;8272629;28;20189;-68
2023/10/10 05:48:09;;;;;;;21.23;13.40;;;9.50;99.90;;;;;;8253937;28;20228;-69
2023/10/10 05:52:10;;;;;;;20.93;13.73;;;9.60;99.90;;;;;;8268116;28;20273;-71
2023/10/10 05:56:15;;;;;;;16.10;12.07;;;9.60;99.90;;;;;;8268645;28;21087;-71
2023/10/10 06:00:16;;;;;;;18.17;13.07;;;9.60;99.90;;;;;;8264031;28;20212;-71
2023/10/10 06:04:19;;;;;;;20.63;12.93;;;9.70;99.90;;;;;;8266885;28;20415;-68
2023/10/10 06:08:20;;;;;;;18.53;12.07;;;9.70;99.90;;;;;;8269165;28;20185;-71
2023/10/10 06:12:21;;;;;;;25.33;15.47;;;9.70;99.90;;;;;;8254728;28;20194;-71
2023/10/10 06:16:23;;;;;;;24.93;14.83;;;9.80;99.90;;;;;;8254559;28;20212;-71
2023/10/10 06:20:26;;;;;;;22.37;13.37;;;9.80;99.90;;;;;;8265346;28;20183;-71
2023/10/10 06:24:27;;;;;;;22.97;14.67;;;9.90;99.90;;;;;;8266057;28;20269;-71
2023/10/10 06:28:34;;;;;;;21.87;13.83;;;10.00;99.90;;;;;;8250066;28;20220;-71
2023/10/10 06:32:38;;;;;;;28.83;16.20;;;10.00;99.90;;;;;;8246049;28;20281;-70
2023/10/10 06:36:39;;;;;;;24.67;16.63;;;10.10;99.90;;;;;;8267256;28;20209;-70
2023/10/10 06:40:52;;;;;;;30.57;16.87;;;10.20;99.90;;;;;;8250054;28;20183;-69
2023/10/10 06:44:54;;;;;;;28.93;17.40;;;10.10;99.90;;;;;;8247679;28;20198;-69
2023/10/10 06:49:04;;;;;;;21.83;14.73;;;10.20;99.90;;;;;;8248473;28;20451;-70
2023/10/10 06:53:05;;;;;;;23.17;15.63;;;10.30;99.90;;;;;;8269101;28;20183;-70
2023/10/10 06:57:05;;;;;;;26.30;16.00;;;10.50;99.90;;;;;;8261496;28;20298;-71
2023/10/10 07:01:06;;;;;;;24.03;15.87;;;10.70;99.90;;;;;;8249389;28;20203;-70
2023/10/10 07:05:15;;;;;;;19.03;11.90;;;10.90;99.90;;;;;;8265671;28;21180;-70
2023/10/10 07:09:36;;;;;;;24.07;14.87;;;11.00;99.90;;;;;;8267204;28;20218;-71
2023/10/10 07:13:43;;;;;;;23.80;15.13;;;11.00;99.90;;;;;;8267211;28;20191;-69
2023/10/10 07:17:49;;;;;;;21.70;14.27;;;11.00;99.90;;;;;;8270054;28;20389;-70
2023/10/10 07:21:53;;;;;;;18.97;12.77;;;11.20;99.90;;;;;;8265969;28;20183;-71
2023/10/10 07:26:01;;;;;;;18.67;12.47;;;11.30;99.90;;;;;;8267480;28;20205;-72
2023/10/10 07:30:15;;;;;;;17.10;11.57;;;11.40;99.90;;;;;;8247304;28;21110;-71
2023/10/10 07:34:16;;;;;;;16.97;11.50;;;11.50;99.90;;;;;;8269159;28;20218;-69
2023/10/10 07:38:17;;;;;;;13.77;10.40;;;11.50;99.90;;;;;;8253051;28;20215;-69
2023/10/10 07:42:27;;;;;;;15.90;10.13;;;11.50;99.90;;;;;;8273599;28;20274;-69
2023/10/10 07:46:35;;;;;;;14.07;9.83;;;11.60;99.90;;;;;;8276252;28;20191;-69
2023/10/10 07:50:49;;;;;;;12.87;9.53;;;11.70;99.90;;;;;;8275004;28;20406;-69
2023/10/10 07:54:53;;;;;;;13.73;9.77;;;12.00;99.90;;;;;;8277356;28;20191;-70
2023/10/10 07:58:56;;;;;;;13.10;9.27;;;12.20;99.90;;;;;;8274058;28;20221;-69
2023/10/10 08:02:57;;;;;;;13.53;9.87;;;12.30;99.90;;;;;;8258209;28;20202;-69
2023/10/10 08:06:58;;;;;;;13.27;10.00;;;12.50;99.90;;;;;;8276250;28;20190;-69
2023/10/10 08:11:05;;;;;;;9.30;8.03;;;12.60;99.90;;;;;;8278257;28;20275;-69
2023/10/10 08:15:25;;;;;;;8.70;6.47;;;12.80;99.90;;;;;;8261570;28;20185;-69
2023/10/10 08:19:33;;;;;;;8.70;6.83;;;13.00;99.90;;;;;;8274373;28;20179;-68
2023/10/10 08:23:36;;;;;;;8.43;7.23;;;13.20;99.90;;;;;;8258573;28;20179;-68
2023/10/10 08:27:38;;;;;;;8.10;6.33;;;13.30;99.90;;;;;;8261292;28;20202;-69
2023/10/10 08:31:43;;;;;;;8.30;7.13;;;13.40;99.90;;;;;;8263344;28;20317;-68
2023/10/10 08:35:45;;;;;;;5.77;5.17;;;13.50;99.90;;;;;;8275569;28;20214;-68
2023/10/10 08:39:49;;;;;;;5.90;4.43;;;13.60;99.90;;;;;;8254139;28;20195;-67
2023/10/10 08:43:57;;;;;;;6.33;4.83;;;13.70;99.90;;;;;;8268207;28;20492;-71
2023/10/10 08:48:00;;;;;;;4.57;4.13;;;13.70;99.90;;;;;;8251163;28;20239;-71
2023/10/10 08:52:03;;;;;;;5.60;4.60;;;13.80;99.90;;;;;;8250111;28;20767;-71
2023/10/10 08:56:04;;;;;;;4.83;4.33;;;13.90;99.90;;;;;;8277542;28;20215;-71
2023/10/10 09:00:17;;;;;;;4.50;3.60;;;14.10;99.90;;;;;;8256105;28;20612;-72
2023/10/10 09:04:19;;;;;;;3.97;3.57;;;14.40;99.90;;;;;;8271234;28;20176;-71
2023/10/10 09:08:26;;;;;;;4.30;3.70;;;14.60;99.90;;;;;;8252891;28;20221;-71
2023/10/10 09:12:27;;;;;;;5.53;3.83;;;14.60;99.90;;;;;;8269818;28;20194;-70
2023/10/10 09:16:42;;;;;;;3.73;3.27;;;14.70;99.90;;;;;;8269915;28;20410;-71
2023/10/10 09:20:46;;;;;;;2.60;2.40;;;14.90;99.90;;;;;;8270332;28;20183;-71
2023/10/10 09:24:49;;;;;;;3.17;2.83;;;15.30;99.90;;;;;;8271612;28;20202;-71
2023/10/10 09:28:58;;;;;;;2.63;1.93;;;15.60;99.90;;;;;;8265821;28;20253;-71
2023/10/10 09:33:22;;;;;;;2.60;1.80;;;15.80;99.90;;;;;;8272067;28;20258;-71
2023/10/10 09:37:30;;;;;;;2.87;1.93;;;16.00;99.90;;;;;;8251304;28;20303;-72
2023/10/10 09:45:52;;;;;;;2.50;1.97;;;16.20;99.90;;;;;;8267797;28;20191;-71
2023/10/10 09:54:15;;;;;;;3.10;2.80;;;15.90;99.90;;;;;;8268765;28;20413;-73
2023/10/10 09:58:24;;;;;;;3.83;3.00;;;15.90;99.90;;;;;;8254741;28;20257;-72
2023/10/10 10:02:40;;;;;;;2.77;2.50;;;15.50;99.90;;;;;;8255901;28;20210;-72
2023/10/10 10:07:01;;;;;;;2.97;2.20;;;15.30;99.90;;;;;;8266662;28;20192;-72
2023/10/10 10:11:11;;;;;;;4.20;2.40;;;15.20;99.90;;;;;;8266612;28;20214;-69
2023/10/10 10:15:50;;;;;;;2.60;2.40;;;15.00;1.00;;;;;;8271415;28;20192;-68
2023/10/10 10:19:52;;;;;;;2.53;2.33;;;14.90;99.90;;;;;;8248793;28;20337;-66
2023/10/10 10:23:56;;;;;;;2.50;2.30;;;15.00;28.40;;;;;;8266662;28;20186;-68
2023/10/10 10:28:10;;;;;;;2.60;2.40;;;15.40;99.90;;;;;;8269133;28;20187;-68
2023/10/10 10:32:12;;;;;;;1.77;1.53;;;15.50;1.00;;;;;;8268223;28;20190;-66
2023/10/10 10:36:16;;;;;;;2.97;2.33;;;15.40;1.00;;;;;;8269121;28;20224;-68
2023/10/10 10:40:42;;;;;;;3.23;2.70;;;15.60;1.00;;;;;;8264978;28;20179;-67
2023/10/10 10:44:53;;;;;;;2.03;1.60;;;15.60;1.00;;;;;;8268174;28;20562;-67
2023/10/10 10:49:05;;;;;;;1.60;1.50;;;15.80;1.00;;;;;;8269028;28;20238;-68
2023/10/10 10:53:31;;;;;;;4.80;2.10;;;16.20;99.90;;;;;;8267640;28;20214;-67
2023/10/10 10:57:40;;;;;;;1.67;1.57;;;16.30;99.90;;;;;;8266971;28;20620;-67
2023/10/10 11:01:47;;;;;;;1.70;1.00;;;16.60;99.90;;;;;;8250653;28;20218;-65
2023/10/10 11:05:50;;;;;;;2.10;1.30;;;16.90;99.90;;;;;;8264921;28;20195;-67
2023/10/10 11:09:53;;;;;;;0.80;0.80;;;17.10;99.90;;;;;;8266417;28;20260;-67
2023/10/10 11:14:10;;;;;;;1.70;1.17;;;16.90;37.60;;;;;;8269135;28;20197;-67
2023/10/10 11:18:12;;;;;;;1.33;1.03;;;16.80;99.90;;;;;;8248329;28;20216;-67
2023/10/10 11:22:38;;;;;;;3.40;1.10;;;17.00;99.90;;;;;;8265251;28;20203;-72
2023/10/10 11:26:40;;;;;;;2.17;0.73;;;17.00;99.90;;;;;;8271609;28;20206;-70
2023/10/10 11:30:45;;;;;;;1.03;0.90;;;17.00;98.30;;;;;;8249586;28;20179;-71
2023/10/10 11:34:49;;;;;;;1.53;1.00;;;17.20;99.30;;;;;;8268805;28;20186;-70
2023/10/10 11:38:56;;;;;;;1.37;0.90;;;17.40;88.30;;;;;;8267635;28;20238;-71
2023/10/10 11:43:05;;;;;;;0.70;0.63;;;17.50;22.20;;;;;;8249101;28;20206;-72
2023/10/10 11:47:08;;;;;;;1.00;0.80;;;17.20;79.10;;;;;;8267501;28;20407;-70
2023/10/10 11:51:11;;;;;;;2.87;0.90;;;17.60;91.50;;;;;;8252451;28;20305;-71
2023/10/10 11:55:14;;;;;;;0.80;0.80;;;17.90;1.70;;;;;;8264586;28;20306;-71
2023/10/10 11:59:17;;;;;;;2.87;0.90;;;17.90;1.60;;;;;;8251691;28;20221;-72
2023/10/10 12:03:31;;;;;;;3.40;0.97;;;18.20;1.00;;;;;;8267830;28;20187;-71
2023/10/10 12:07:40;;;;;;;0.90;0.80;;;18.40;1.00;;;;;;8256142;28;20335;-70
2023/10/10 12:11:40;;;;;;;1.33;0.80;;;18.00;1.00;;;;;;8251460;28;20187;-70
2023/10/10 12:15:44;;;;;;;0.93;0.80;;;17.80;1.00;;;;;;8251210;28;20223;-73
2023/10/10 12:19:45;;;;;;;1.80;0.70;;;17.70;1.00;;;;;;8266864;28;20179;-72
2023/10/10 12:23:57;;;;;;;1.10;0.80;;;17.60;1.00;;;;;;8250916;28;20222;-72
2023/10/10 12:28:00;;;;;;;2.03;0.97;;;17.50;13.70;;;;;;8272039;28;20203;-71
2023/10/10 12:32:14;;;;;;;1.03;0.93;;;17.70;12.20;;;;;;8255728;28;20195;-68
2023/10/10 12:36:22;;;;;;;1.67;1.03;;;17.90;1.50;;;;;;8257293;28;21691;-66
2023/10/10 12:40:22;;;;;;;1.40;1.00;;;18.40;1.00;;;;;;8257724;28;20233;-67
2023/10/10 12:44:23;;;;;;;4.30;1.50;;;18.80;1.00;;;;;;8268546;28;20198;-67
2023/10/10 12:48:24;;;;;;;2.40;1.53;;;18.90;1.00;;;;;;8250820;28;20195;-67
2023/10/10 12:52:32;;;;;;;3.07;1.90;;;18.70;1.00;;;;;;8254929;28;20187;-69
2023/10/10 12:56:48;;;;;;;2.07;1.80;;;18.40;1.00;;;;;;8252441;28;20300;-69
2023/10/10 13:00:53;;;;;;;3.57;1.80;;;18.10;1.00;;;;;;8254510;28;20211;-68
2023/10/10 13:04:56;;;;;;;3.70;1.63;;;18.10;1.00;;;;;;8271849;28;20202;-68
2023/10/10 13:09:03;;;;;;;1.70;1.60;;;17.70;1.00;;;;;;8270621;28;20504;-67
2023/10/10 13:13:07;;;;;;;1.60;1.47;;;17.40;1.00;;;;;;8253860;28;20535;-69
2023/10/10 13:17:29;;;;;;;2.33;1.80;;;17.50;1.00;;;;;;8269642;28;20215;-67
2023/10/10 13:21:30;;;;;;;7.67;1.60;;;17.40;1.00;;;;;;8269349;28;20181;-67
2023/10/10 13:25:31;;;;;;;1.90;1.70;;;17.40;1.00;;;;;;8251020;28;20226;-66
2023/10/10 13:29:36;;;;;;;2.23;1.87;;;17.50;1.00;;;;;;8258408;28;20232;-69
2023/10/10 13:33:39;;;;;;;3.00;2.00;;;17.50;1.00;;;;;;8271840;28;20190;-67
2023/10/10 13:37:43;;;;;;;2.20;1.83;;;17.60;1.00;;;;;;8263904;28;20208;-68
2023/10/10 13:41:44;;;;;;;2.53;1.90;;;17.60;1.00;;;;;;8271734;28;20210;-72
2023/10/10 13:45:48;;;;;;;4.63;2.00;;;17.70;1.00;;;;;;8272281;28;20191;-70
2023/10/10 13:50:13;;;;;;;2.87;1.83;;;17.60;1.00;;;;;;8269944;28;20222;-72
2023/10/10 13:54:13;;;;;;;3.07;2.53;;;17.50;1.00;;;;;;8273469;28;20282;-72
2023/10/10 13:58:16;;;;;;;5.03;2.10;;;17.60;1.00;;;;;;8259512;28;20221;-73
2023/10/10 14:02:16;;;;;;;2.27;1.63;;;17.50;1.00;;;;;;8259730;28;20238;-69
2023/10/10 14:06:26;;;;;;;2.07;1.40;;;17.70;1.00;;;;;;8267415;28;20190;-69
2023/10/10 14:10:27;;;;;;;2.63;1.60;;;17.70;1.00;;;;;;8267045;28;20183;-68
2023/10/10 14:14:28;;;;;;;2.20;1.83;;;17.60;1.00;;;;;;8266201;28;20183;-68
2023/10/10 14:18:32;;;;;;;1.70;1.20;;;17.50;1.00;;;;;;8268449;28;20218;-69
2023/10/10 14:22:34;;;;;;;1.50;1.20;;;17.30;1.00;;;;;;8267357;28;20207;-68
2023/10/10 14:26:35;;;;;;;5.20;1.50;;;17.20;1.00;;;;;;8267946;28;20234;-71
2023/10/10 14:30:37;;;;;;;3.80;1.50;;;17.20;1.00;;;;;;8252159;28;20191;-68
2023/10/10 14:34:38;;;;;;;2.50;1.77;;;17.10;1.00;;;;;;8267799;28;20516;-68
2023/10/10 14:38:45;;;;;;;2.10;1.50;;;17.00;1.00;;;;;;8266209;28;20242;-68
2023/10/10 14:42:46;;;;;;;1.17;1.00;;;16.90;1.00;;;;;;8265097;28;20183;-67
2023/10/10 14:46:47;;;;;;;3.07;1.60;;;16.80;12.60;;;;;;8267933;28;20309;-68
2023/10/10 14:50:52;;;;;;;1.77;1.47;;;16.70;22.10;;;;;;8252233;28;20187;-67
2023/10/10 14:54:53;;;;;;;2.40;1.20;;;16.70;43.50;;;;;;8248677;28;20376;-68
2023/10/10 14:58:53;;;;;;;1.63;1.33;;;16.90;51.30;;;;;;8266040;28;20210;-68
2023/10/10 15:02:55;;;;;;;2.00;1.70;;;17.00;4.60;;;;;;8273121;28;20219;-73
2023/10/10 15:06:58;;;;;;;1.80;1.43;;;16.90;27.40;;;;;;8250359;28;20197;-72
2023/10/10 15:11:00;;;;;;;2.63;1.30;;;16.70;49.00;;;;;;8244970;28;20314;-73
2023/10/10 15:15:00;;;;;;;1.50;1.40;;;16.60;90.90;;;;;;8255666;28;20310;-72
2023/10/10 15:19:06;;;;;;;2.57;1.30;;;16.50;98.50;;;;;;8258468;28;20215;-72
2023/10/10 15:23:07;;;;;;;1.93;1.20;;;16.60;99.90;;;;;;8255252;28;20183;-68
2023/10/10 15:27:09;;;;;;;2.80;1.73;;;16.60;99.90;;;;;;8249161;28;20227;-66
2023/10/10 15:31:10;;;;;;;3.67;1.80;;;16.50;99.90;;;;;;8247218;28;20183;-67
2023/10/10 15:35:17;;;;;;;2.00;1.73;;;16.40;99.90;;;;;;8244910;28;20528;-68
2023/10/10 15:39:17;;;;;;;2.70;1.60;;;16.10;99.90;;;;;;8265531;28;20206;-68
2023/10/10 15:43:18;;;;;;;2.27;1.70;;;15.90;99.90;;;;;;8266735;28;20183;-68
2023/10/10 15:47:21;;;;;;;2.13;1.63;;;15.80;99.90;;;;;;8248518;28;20195;-68
2023/10/10 15:51:21;;;;;;;1.57;1.47;;;15.60;99.90;;;;;;8248173;28;20195;-65
2023/10/10 15:55:25;;;;;;;1.50;1.40;;;15.40;99.90;;;;;;8266855;28;20258;-67
2023/10/10 15:59:27;;;;;;;1.77;1.60;;;15.30;99.90;;;;;;8249782;28;20624;-68
2023/10/10 16:03:31;;;;;;;1.80;1.70;;;15.20;1.00;;;;;;8273651;28;20486;-66
2023/10/10 16:07:32;;;;;;;1.80;1.70;;;15.20;1.00;;;;;;8258846;28;20187;-67
2023/10/10 16:11:34;;;;;;;1.80;1.60;;;15.10;1.00;;;;;;8260185;28;20220;-67
2023/10/10 16:15:36;;;;;;;2.17;1.70;;;14.90;1.00;;;;;;8272419;28;20187;-67
2023/10/10 16:19:39;;;;;;;2.90;1.83;;;14.70;83.60;;;;;;8272139;28;20482;-67
2023/10/10 16:23:44;;;;;;;2.03;1.80;;;14.50;99.90;;;;;;8276353;28;20337;-68
2023/10/10 16:27:45;;;;;;;2.30;1.90;;;14.30;99.90;;;;;;8271760;28;20629;-66
2023/10/10 16:31:46;;;;;;;1.83;1.73;;;14.10;1.00;;;;;;8276444;28;20183;-73
2023/10/10 16:35:50;;;;;;;2.90;1.80;;;13.90;99.90;;;;;;8283858;28;20231;-70
2023/10/10 16:39:52;;;;;;;2.23;1.90;;;13.80;99.90;;;;;;8288206;28;20470;-70
2023/10/10 16:43:52;;;;;;;2.20;2.00;;;13.80;1.00;;;;;;8256429;28;20191;-63
2023/10/10 16:47:56;;;;;;;2.90;2.10;;;13.80;99.90;;;;;;8270693;28;20241;-64
2023/10/10 16:51:57;;;;;;;2.63;2.43;;;13.80;99.90;;;;;;8271560;28;20198;-65
2023/10/10 16:56:06;;;;;;;2.77;2.53;;;13.80;99.90;;;;;;8268809;28;20207;-63
2023/10/10 17:00:15;;;;;;;2.30;2.10;;;13.70;99.90;;;;;;8269899;28;20578;-64
2023/10/10 17:04:18;;;;;;;3.00;2.57;;;13.50;99.90;;;;;;8254129;28;20188;-63
2023/10/10 17:08:20;;;;;;;2.93;2.70;;;13.40;99.90;;;;;;8271768;28;20188;-63
2023/10/10 17:12:21;;;;;;;2.70;2.40;;;13.20;99.90;;;;;;8251689;28;20238;-62
2023/10/10 17:16:28;;;;;;;2.60;2.40;;;13.10;56.40;;;;;;8268813;28;20210;-62
2023/10/10 17:20:29;;;;;;;2.73;2.47;;;13.00;1.00;;;;;;8251462;28;20198;-64
2023/10/10 17:24:31;;;;;;;5.03;2.60;;;12.90;99.90;;;;;;8269456;28;20336;-64
2023/10/10 17:28:32;;;;;;;2.80;2.60;;;12.70;99.90;;;;;;8250189;28;20282;-65
2023/10/10 17:32:33;;;;;;;3.60;2.70;;;12.60;1.00;;;;;;8248790;28;20195;-65
2023/10/10 17:36:35;;;;;;;2.93;2.73;;;12.50;1.00;;;;;;8268447;28;20234;-65
2023/10/10 17:40:39;;;;;;;2.70;2.50;;;12.40;1.00;;;;;;8250751;28;20188;-64
2023/10/10 17:44:40;;;;;;;2.80;2.60;;;12.30;5.60;;;;;;8269044;28;20184;-62
2023/10/10 17:48:44;;;;;;;2.70;2.50;;;12.20;99.90;;;;;;8250368;28;20191;-63
2023/10/10 17:52:45;;;;;;;2.70;2.50;;;12.10;99.90;;;;;;8265175;28;20210;-70
2023/10/10 17:56:48;;;;;;;3.33;2.87;;;12.00;99.90;;;;;;8267200;28;20207;-71
2023/10/10 18:00:52;;;;;;;2.63;2.43;;;11.90;99.90;;;;;;8245172;28;20200;-70
2023/10/10 18:04:55;;;;;;;3.20;2.93;;;11.80;99.90;;;;;;8239935;28;20176;-70
2023/10/10 18:09:00;;;;;;;3.77;2.67;;;11.80;99.90;;;;;;8256038;28;20180;-71
2023/10/10 18:13:04;;;;;;;3.60;2.40;;;11.70;99.90;;;;;;8259573;28;20175;-70
2023/10/10 18:17:09;;;;;;;3.13;2.57;;;11.60;99.90;;;;;;8281691;28;20207;-70
2023/10/10 18:21:11;;;;;;;3.00;2.67;;;11.50;99.90;;;;;;8265620;28;20185;-70
2023/10/10 18:25:13;;;;;;;3.27;2.97;;;11.50;99.90;;;;;;8283674;28;20202;-68
2023/10/10 18:29:16;;;;;;;4.03;3.63;;;11.50;99.90;;;;;;8271569;28;20198;-71
2023/10/10 18:33:17;;;;;;;5.97;3.90;;;11.50;99.90;;;;;;8272865;28;20354;-70
2023/10/10 18:37:17;;;;;;;4.57;3.83;;;11.50;99.90;;;;;;8272089;28;20199;-71
2023/10/10 18:41:25;;;;;;;4.63;3.63;;;11.50;99.90;;;;;;8264774;28;20209;-70
2023/10/10 18:45:29;;;;;;;3.90;3.30;;;11.60;99.90;;;;;;8280671;28;20183;-69
2023/10/10 18:49:33;;;;;;;4.37;3.97;;;11.60;99.90;;;;;;8284267;28;20191;-70
2023/10/10 18:53:37;;;;;;;9.50;4.90;;;11.70;99.90;;;;;;8282869;28;20192;-70
2023/10/10 18:57:38;;;;;;;5.87;4.87;;;11.60;99.90;;;;;;8281442;28;20276;-67
2023/10/10 19:01:43;;;;;;;5.33;4.80;;;11.70;99.90;;;;;;8269663;28;20206;-64
2023/10/10 19:05:50;;;;;;;5.20;4.70;;;11.70;99.90;;;;;;8273316;28;20183;-63
2023/10/10 19:09:51;;;;;;;5.27;4.53;;;11.70;99.90;;;;;;8264529;28;20246;-65
2023/10/10 19:13:51;;;;;;;6.07;5.10;;;11.70;99.90;;;;;;8247800;28;20195;-63
2023/10/10 19:17:53;;;;;;;11.13;8.53;;;11.70;99.90;;;;;;8265351;28;20225;-63
2023/10/10 19:21:54;;;;;;;8.57;7.67;;;11.70;99.90;;;;;;8245173;28;20191;-65
2023/10/10 19:25:55;;;;;;;12.60;9.40;;;11.70;99.90;;;;;;8266607;28;20209;-64
2023/10/10 19:29:57;;;;;;;11.03;9.33;;;11.80;99.90;;;;;;8264556;28;20184;-64
2023/10/10 19:33:58;;;;;;;11.70;8.90;;;11.80;99.90;;;;;;8266825;28;20183;-64
2023/10/10 19:37:59;;;;;;;10.17;8.70;;;11.90;99.90;;;;;;8268036;28;20214;-64
2023/10/10 19:42:03;;;;;;;9.30;8.00;;;12.00;99.90;;;;;;8272517;28;20195;-64
2023/10/10 19:46:10;;;;;;;8.27;7.30;;;12.00;99.90;;;;;;8271598;28;20183;-65
2023/10/10 19:50:10;;;;;;;8.73;7.20;;;12.10;99.90;;;;;;8268708;28;20237;-66
2023/10/10 19:54:12;;;;;;;8.50;7.20;;;12.20;99.90;;;;;;8272074;28;20214;-65
2023/10/10 19:58:13;;;;;;;6.83;6.10;;;12.20;99.90;;;;;;8272073;28;20213;-63
2023/10/10 20:02:14;;;;;;;8.70;6.90;;;12.20;99.90;;;;;;8271381;28;20207;-64
2023/10/10 20:06:19;;;;;;;6.97;6.27;;;12.20;99.90;;;;;;8252226;28;20196;-63
2023/10/10 20:10:22;;;;;;;12.80;9.10;;;12.20;99.90;;;;;;8252805;28;20187;-65
2023/10/10 20:14:23;;;;;;;8.70;7.77;;;12.20;99.90;;;;;;8270133;28;20187;-65
2023/10/10 20:18:24;;;;;;;8.30;7.47;;;12.10;99.90;;;;;;8253089;28;20313;-65
2023/10/10 20:22:25;;;;;;;8.37;7.47;;;12.10;99.90;;;;;;8249165;28;20206;-65
2023/10/10 20:26:26;;;;;;;8.07;7.27;;;12.10;99.90;;;;;;8256295;28;20456;-65
2023/10/10 20:30:32;;;;;;;8.93;7.57;;;12.10;99.90;;;;;;8271085;28;20191;-65
2023/10/10 20:34:33;;;;;;;11.57;8.20;;;12.10;99.90;;;;;;8255159;28;20183;-64
2023/10/10 20:38:34;;;;;;;11.70;8.63;;;12.10;99.90;;;;;;8254141;28;20232;-64
2023/10/10 20:42:35;;;;;;;11.30;9.73;;;12.10;99.90;;;;;;8271323;28;20620;-64
2023/10/10 20:46:36;;;;;;;10.90;8.40;;;12.20;99.90;;;;;;8271679;28;20190;-65
2023/10/10 20:50:40;;;;;;;11.43;10.07;;;12.30;99.90;;;;;;8255077;28;20190;-64
2023/10/10 20:54:41;;;;;;;13.17;10.47;;;12.30;99.90;;;;;;8269787;28;20205;-64
2023/10/10 20:58:42;;;;;;;15.43;10.90;;;12.40;99.90;;;;;;8270893;28;20487;-64
2023/10/10 21:02:43;;;;;;;15.47;10.50;;;12.50;99.90;;;;;;8253861;28;20286;-65
2023/10/10 21:06:44;;;;;;;15.20;9.93;;;12.60;99.90;;;;;;8266359;28;20183;-65
2023/10/10 21:10:44;;;;;;;11.03;9.30;;;12.60;99.90;;;;;;8269856;28;20441;-64
2023/10/10 21:14:45;;;;;;;11.43;9.63;;;12.60;99.90;;;;;;8272200;28;20237;-66
2023/10/10 21:18:46;;;;;;;8.00;7.20;;;12.60;99.90;;;;;;8269743;28;20288;-65
2023/10/10 21:22:48;;;;;;;12.47;8.97;;;12.70;99.90;;;;;;8252462;28;20183;-65
2023/10/10 21:26:49;;;;;;;12.37;9.97;;;12.70;99.90;;;;;;8267100;28;20485;-65
2023/10/10 21:30:51;;;;;;;11.10;8.60;;;12.70;99.90;;;;;;8267765;28;20270;-66
2023/10/10 21:34:52;;;;;;;10.23;8.57;;;12.80;99.90;;;;;;8272192;28;20278;-65
2023/10/10 21:38:53;;;;;;;9.07;7.90;;;12.80;99.90;;;;;;8272195;28;20211;-65
2023/10/10 21:42:55;;;;;;;10.27;8.53;;;12.80;99.90;;;;;;8252079;28;20297;-64
2023/10/10 21:46:56;;;;;;;13.83;10.40;;;12.80;99.90;;;;;;8270094;28;20194;-65
2023/10/10 21:50:57;;;;;;;12.27;9.90;;;12.80;99.90;;;;;;8268867;28;20270;-64
2023/10/10 21:54:57;;;;;;;10.27;8.83;;;12.80;99.90;;;;;;8256464;28;20306;-65
2023/10/10 21:58:59;;;;;;;10.17;8.60;;;12.80;99.90;;;;;;8267633;28;20305;-63
2023/10/10 22:03:03;;;;;;;8.57;7.60;;;12.80;99.90;;;;;;8254397;28;20187;-64
2023/10/10 22:07:04;;;;;;;9.37;8.13;;;12.90;99.90;;;;;;8268983;28;20214;-64
2023/10/10 22:11:08;;;;;;;10.33;8.77;;;12.80;99.90;;;;;;8268679;28;20183;-66
2023/10/10 22:15:12;;;;;;;10.47;8.40;;;12.80;99.90;;;;;;8268508;28;20179;-64
2023/10/10 22:19:13;;;;;;;11.27;8.63;;;12.80;99.90;;;;;;8267901;28;20613;-65
2023/10/10 22:23:15;;;;;;;9.27;8.23;;;12.80;99.90;;;;;;8251192;28;20278;-64
2023/10/10 22:27:17;;;;;;;12.77;9.30;;;12.80;99.90;;;;;;8268697;28;20235;-65
2023/10/10 22:31:18;;;;;;;8.50;7.40;;;12.80;99.90;;;;;;8269099;28;20193;-65
2023/10/10 22:35:21;;;;;;;8.97;7.63;;;12.80;99.90;;;;;;8268783;28;20180;-64
2023/10/10 22:39:25;;;;;;;9.97;8.00;;;12.70;99.90;;;;;;8266630;28;20399;-65
2023/10/10 22:43:27;;;;;;;10.07;7.43;;;12.70;99.90;;;;;;8277767;28;20180;-71
2023/10/10 22:47:28;;;;;;;9.10;6.93;;;12.70;99.90;;;;;;8280948;28;20187;-69
2023/10/10 22:51:35;;;;;;;8.47;7.23;;;12.70;99.90;;;;;;8269701;28;20241;-70
2023/10/10 22:55:39;;;;;;;9.00;6.67;;;12.80;99.90;;;;;;8254264;28;20278;-70
2023/10/10 22:59:44;;;;;;;8.30;6.73;;;12.70;99.90;;;;;;8262598;28;20229;-70
2023/10/10 23:03:52;;;;;;;7.87;6.60;;;12.70;99.90;;;;;;8271676;28;20194;-70
2023/10/10 23:07:56;;;;;;;8.57;7.20;;;12.70;99.90;;;;;;8280864;28;20195;-70
2023/10/10 23:11:57;;;;;;;7.73;6.83;;;12.70;99.90;;;;;;8284467;28;20191;-70